sensor_id;sensor_type;location;lat;lon;timestamp;temperature;humidity
23053;DHT22;11694;-36.632;-64.318;2022-12-18T00:01:37;25.50;99.90
23053;DHT22;11694;-36.632;-64.318;2022-12-18T00:04:07;25.40;99.90
23053;DHT22;11694;-36.632;-64.318;2022-12-18T00:06:40;25.30;99.90
23053;DHT22;11694;-36.632;-64.318;2022-12-18T00:09:07;25.20;99.90
23053;DHT22;11694;-36.632;-64.318;2022-12-18T00:11:34;25.30;99.90
23053;DHT22;11694;-36.632;-64.318;2022-12-18T00:14:01;25.20;99.90
23053;DHT22;11694;-36.632;-64.318;2022-12-18T00:16:29;25.20;99.90
23053;DHT22;11694;-36.632;-64.318;2022-12-18T00:19:02;25.10;99.90
23053;DHT22;11694;-36.632;-64.318;2022-12-18T00:21:31;25.00;99.90
23053;DHT22;11694;-36.632;-64.318;2022-12-18T00:23:59;24.90;99.90
23053;DHT22;11694;-36.632;-64.318;2022-12-18T00:26:29;24.90;99.90
23053;DHT22;11694;-36.632;-64.318;2022-12-18T00:29:02;24.90;99.90
23053;DHT22;11694;-36.632;-64.318;2022-12-18T00:31:29;24.90;99.90
23053;DHT22;11694;-36.632;-64.318;2022-12-18T00:33:57;24.80;99.90
23053;DHT22;11694;-36.632;-64.318;2022-12-18T00:36:30;24.80;99.90
23053;DHT22;11694;-36.632;-64.318;2022-12-18T00:38:58;24.80;99.90
23053;DHT22;11694;-36.632;-64.318;2022-12-18T00:41:26;24.80;99.90
23053;DHT22;11694;-36.632;-64.318;2022-12-18T00:44:14;24.70;99.90
23053;DHT22;11694;-36.632;-64.318;2022-12-18T00:46:42;24.70;99.90
23053;DHT22;11694;-36.632;-64.318;2022-12-18T00:49:10;24.70;99.90
23053;DHT22;11694;-36.632;-64.318;2022-12-18T00:51:37;24.70;99.90
23053;DHT22;11694;-36.632;-64.318;2022-12-18T00:54:04;24.60;99.90
23053;DHT22;11694;-36.632;-64.318;2022-12-18T00:56:31;24.50;99.90
23053;DHT22;11694;-36.632;-64.318;2022-12-18T00:58:58;24.50;99.90
23053;DHT22;11694;-36.632;-64.318;2022-12-18T01:01:26;24.50;99.90
23053;DHT22;11694;-36.632;-64.318;2022-12-18T01:03:53;24.50;99.90
23053;DHT22;11694;-36.632;-64.318;2022-12-18T01:06:20;24.50;99.90
23053;DHT22;11694;-36.632;-64.318;2022-12-18T01:08:47;24.40;99.90
23053;DHT22;11694;-36.632;-64.318;2022-12-18T01:11:17;24.40;99.90
23053;DHT22;11694;-36.632;-64.318;2022-12-18T01:13:46;24.30;99.90
23053;DHT22;11694;-36.632;-64.318;2022-12-18T01:16:15;24.30;99.90
23053;DHT22;11694;-36.632;-64.318;2022-12-18T01:18:43;24.30;99.90
23053;DHT22;11694;-36.632;-64.318;2022-12-18T01:21:13;24.30;99.90
23053;DHT22;11694;-36.632;-64.318;2022-12-18T01:23:40;24.20;99.90
23053;DHT22;11694;-36.632;-64.318;2022-12-18T01:26:13;24.20;99.90
23053;DHT22;11694;-36.632;-64.318;2022-12-18T01:28:41;24.20;99.90
23053;DHT22;11694;-36.632;-64.318;2022-12-18T01:31:20;24.10;99.90
23053;DHT22;11694;-36.632;-64.318;2022-12-18T01:33:47;24.10;99.90
23053;DHT22;11694;-36.632;-64.318;2022-12-18T01:36:26;24.10;99.90
23053;DHT22;11694;-36.632;-64.318;2022-12-18T01:38:54;24.10;99.90
23053;DHT22;11694;-36.632;-64.318;2022-12-18T01:41:25;24.10;99.90
23053;DHT22;11694;-36.632;-64.318;2022-12-18T01:43:57;24.00;99.90
23053;DHT22;11694;-36.632;-64.318;2022-12-18T01:46:26;24.10;99.90
23053;DHT22;11694;-36.632;-64.318;2022-12-18T01:48:59;24.00;99.90
23053;DHT22;11694;-36.632;-64.318;2022-12-18T01:51:28;23.90;99.90
23053;DHT22;11694;-36.632;-64.318;2022-12-18T01:53:57;23.90;99.90
23053;DHT22;11694;-36.632;-64.318;2022-12-18T01:56:27;23.80;99.90
23053;DHT22;11694;-36.632;-64.318;2022-12-18T01:59:06;23.70;99.90
23053;DHT22;11694;-36.632;-64.318;2022-12-18T02:01:35;23.70;99.90
23053;DHT22;11694;-36.632;-64.318;2022-12-18T02:04:21;23.70;99.90
23053;DHT22;11694;-36.632;-64.318;2022-12-18T02:07:08;23.60;99.90
23053;DHT22;11694;-36.632;-64.318;2022-12-18T02:09:50;23.60;99.90
23053;DHT22;11694;-36.632;-64.318;2022-12-18T02:12:23;23.50;99.90
23053;DHT22;11694;-36.632;-64.318;2022-12-18T02:15:13;23.40;99.90
23053;DHT22;11694;-36.632;-64.318;2022-12-18T02:17:52;23.40;99.90
23053;DHT22;11694;-36.632;-64.318;2022-12-18T02:20:28;23.40;99.90
23053;DHT22;11694;-36.632;-64.318;2022-12-18T02:23:20;23.30;99.90
23053;DHT22;11694;-36.632;-64.318;2022-12-18T02:26:07;23.20;99.90
23053;DHT22;11694;-36.632;-64.318;2022-12-18T02:28:47;23.20;99.90
23053;DHT22;11694;-36.632;-64.318;2022-12-18T02:31:25;23.10;99.90
23053;DHT22;11694;-36.632;-64.318;2022-12-18T02:33:56;23.10;99.90
23053;DHT22;11694;-36.632;-64.318;2022-12-18T02:36:27;23.00;99.90
23053;DHT22;11694;-36.632;-64.318;2022-12-18T02:38:55;23.00;99.90
23053;DHT22;11694;-36.632;-64.318;2022-12-18T02:41:23;23.00;99.90
23053;DHT22;11694;-36.632;-64.318;2022-12-18T02:43:56;23.00;99.90
23053;DHT22;11694;-36.632;-64.318;2022-12-18T02:46:41;22.90;99.90
23053;DHT22;11694;-36.632;-64.318;2022-12-18T03:03:59;22.70;99.90
23053;DHT22;11694;-36.632;-64.318;2022-12-18T03:06:46;22.60;99.90
23053;DHT22;11694;-36.632;-64.318;2022-12-18T03:09:38;22.50;99.90
23053;DHT22;11694;-36.632;-64.318;2022-12-18T03:12:21;22.40;99.90
23053;DHT22;11694;-36.632;-64.318;2022-12-18T03:17:32;22.30;99.90
23053;DHT22;11694;-36.632;-64.318;2022-12-18T03:20:10;22.20;99.90
23053;DHT22;11694;-36.632;-64.318;2022-12-18T03:22:43;22.10;99.90
23053;DHT22;11694;-36.632;-64.318;2022-12-18T03:25:14;22.00;99.90
23053;DHT22;11694;-36.632;-64.318;2022-12-18T03:27:49;21.90;1.00
23053;DHT22;11694;-36.632;-64.318;2022-12-18T03:30:19;21.80;99.90
23053;DHT22;11694;-36.632;-64.318;2022-12-18T03:33:08;21.70;1.00
23053;DHT22;11694;-36.632;-64.318;2022-12-18T03:35:41;21.60;1.00
23053;DHT22;11694;-36.632;-64.318;2022-12-18T03:38:10;21.40;99.90
23053;DHT22;11694;-36.632;-64.318;2022-12-18T03:49:46;20.90;1.00
23053;DHT22;11694;-36.632;-64.318;2022-12-18T03:52:35;20.90;1.00
23053;DHT22;11694;-36.632;-64.318;2022-12-18T03:55:05;20.80;1.00
23053;DHT22;11694;-36.632;-64.318;2022-12-18T03:57:35;20.60;1.00
23053;DHT22;11694;-36.632;-64.318;2022-12-18T04:00:08;20.50;1.00
23053;DHT22;11694;-36.632;-64.318;2022-12-18T04:02:38;20.50;1.00
23053;DHT22;11694;-36.632;-64.318;2022-12-18T04:05:07;20.40;1.00
23053;DHT22;11694;-36.632;-64.318;2022-12-18T04:07:36;20.40;1.00
23053;DHT22;11694;-36.632;-64.318;2022-12-18T04:10:07;20.40;1.00
23053;DHT22;11694;-36.632;-64.318;2022-12-18T04:12:37;20.40;1.00
23053;DHT22;11694;-36.632;-64.318;2022-12-18T04:15:05;20.40;1.00
23053;DHT22;11694;-36.632;-64.318;2022-12-18T04:17:33;20.40;1.00
23053;DHT22;11694;-36.632;-64.318;2022-12-18T04:20:00;20.40;1.00
23053;DHT22;11694;-36.632;-64.318;2022-12-18T04:22:27;20.40;1.00
23053;DHT22;11694;-36.632;-64.318;2022-12-18T04:24:54;20.40;1.00
23053;DHT22;11694;-36.632;-64.318;2022-12-18T04:27:21;20.50;1.00
23053;DHT22;11694;-36.632;-64.318;2022-12-18T04:29:49;20.50;1.00
23053;DHT22;11694;-36.632;-64.318;2022-12-18T04:32:16;20.50;1.00
23053;DHT22;11694;-36.632;-64.318;2022-12-18T04:34:43;20.50;1.00
23053;DHT22;11694;-36.632;-64.318;2022-12-18T04:37:10;20.60;1.00
23053;DHT22;11694;-36.632;-64.318;2022-12-18T04:39:37;20.60;1.00
23053;DHT22;11694;-36.632;-64.318;2022-12-18T04:42:04;20.60;1.00
23053;DHT22;11694;-36.632;-64.318;2022-12-18T04:44:31;20.60;1.00
23053;DHT22;11694;-36.632;-64.318;2022-12-18T04:46:58;20.70;1.00
23053;DHT22;11694;-36.632;-64.318;2022-12-18T04:49:25;20.70;1.00
23053;DHT22;11694;-36.632;-64.318;2022-12-18T04:51:53;20.70;1.00
23053;DHT22;11694;-36.632;-64.318;2022-12-18T04:54:20;20.70;1.00
23053;DHT22;11694;-36.632;-64.318;2022-12-18T04:56:47;20.70;1.00
23053;DHT22;11694;-36.632;-64.318;2022-12-18T04:59:14;20.60;1.00
23053;DHT22;11694;-36.632;-64.318;2022-12-18T05:01:41;20.70;1.00
23053;DHT22;11694;-36.632;-64.318;2022-12-18T05:04:08;20.60;1.00
23053;DHT22;11694;-36.632;-64.318;2022-12-18T05:06:35;20.60;1.00
23053;DHT22;11694;-36.632;-64.318;2022-12-18T05:09:02;20.60;1.00
23053;DHT22;11694;-36.632;-64.318;2022-12-18T05:11:30;20.60;1.00
23053;DHT22;11694;-36.632;-64.318;2022-12-18T05:13:57;20.60;1.00
23053;DHT22;11694;-36.632;-64.318;2022-12-18T05:16:24;20.60;1.00
23053;DHT22;11694;-36.632;-64.318;2022-12-18T05:18:51;20.50;1.00
23053;DHT22;11694;-36.632;-64.318;2022-12-18T05:21:18;20.50;1.00
23053;DHT22;11694;-36.632;-64.318;2022-12-18T05:23:45;20.50;1.00
23053;DHT22;11694;-36.632;-64.318;2022-12-18T05:26:16;20.40;1.00
23053;DHT22;11694;-36.632;-64.318;2022-12-18T05:28:44;20.40;1.00
23053;DHT22;11694;-36.632;-64.318;2022-12-18T05:31:11;20.30;1.00
23053;DHT22;11694;-36.632;-64.318;2022-12-18T05:33:40;20.30;1.00
23053;DHT22;11694;-36.632;-64.318;2022-12-18T05:36:10;20.30;1.00
23053;DHT22;11694;-36.632;-64.318;2022-12-18T05:38:38;20.20;1.00
23053;DHT22;11694;-36.632;-64.318;2022-12-18T05:41:07;20.20;1.00
23053;DHT22;11694;-36.632;-64.318;2022-12-18T05:43:36;20.30;1.00
23053;DHT22;11694;-36.632;-64.318;2022-12-18T05:46:08;20.30;1.00
23053;DHT22;11694;-36.632;-64.318;2022-12-18T05:48:35;20.20;1.00
23053;DHT22;11694;-36.632;-64.318;2022-12-18T05:51:08;20.20;1.00
23053;DHT22;11694;-36.632;-64.318;2022-12-18T05:53:36;20.10;1.00
23053;DHT22;11694;-36.632;-64.318;2022-12-18T05:56:05;20.10;1.00
23053;DHT22;11694;-36.632;-64.318;2022-12-18T05:58:33;20.00;1.00
23053;DHT22;11694;-36.632;-64.318;2022-12-18T06:01:08;20.10;1.00
23053;DHT22;11694;-36.632;-64.318;2022-12-18T06:03:36;20.10;1.00
23053;DHT22;11694;-36.632;-64.318;2022-12-18T06:06:11;20.10;1.00
23053;DHT22;11694;-36.632;-64.318;2022-12-18T06:08:39;20.10;1.00
23053;DHT22;11694;-36.632;-64.318;2022-12-18T06:11:06;20.00;1.00
23053;DHT22;11694;-36.632;-64.318;2022-12-18T06:13:33;20.00;1.00
23053;DHT22;11694;-36.632;-64.318;2022-12-18T06:16:03;20.00;1.00
23053;DHT22;11694;-36.632;-64.318;2022-12-18T06:18:30;19.90;1.00
23053;DHT22;11694;-36.632;-64.318;2022-12-18T06:20:59;20.00;1.00
23053;DHT22;11694;-36.632;-64.318;2022-12-18T06:23:28;19.90;1.00
23053;DHT22;11694;-36.632;-64.318;2022-12-18T06:25:55;19.90;1.00
23053;DHT22;11694;-36.632;-64.318;2022-12-18T06:28:23;19.90;1.00
23053;DHT22;11694;-36.632;-64.318;2022-12-18T06:30:50;19.80;1.00
23053;DHT22;11694;-36.632;-64.318;2022-12-18T06:33:17;19.70;1.00
23053;DHT22;11694;-36.632;-64.318;2022-12-18T06:35:44;19.60;1.00
23053;DHT22;11694;-36.632;-64.318;2022-12-18T06:38:12;19.60;1.00
23053;DHT22;11694;-36.632;-64.318;2022-12-18T06:40:39;19.50;1.00
23053;DHT22;11694;-36.632;-64.318;2022-12-18T06:43:06;19.50;1.00
23053;DHT22;11694;-36.632;-64.318;2022-12-18T06:45:34;19.40;1.00
23053;DHT22;11694;-36.632;-64.318;2022-12-18T06:48:01;19.40;1.00
23053;DHT22;11694;-36.632;-64.318;2022-12-18T06:50:29;19.30;1.00
23053;DHT22;11694;-36.632;-64.318;2022-12-18T06:52:56;19.20;1.00
23053;DHT22;11694;-36.632;-64.318;2022-12-18T06:55:23;19.20;1.00
23053;DHT22;11694;-36.632;-64.318;2022-12-18T06:57:50;19.20;1.00
23053;DHT22;11694;-36.632;-64.318;2022-12-18T07:00:17;19.20;1.00
23053;DHT22;11694;-36.632;-64.318;2022-12-18T07:02:44;19.10;1.00
23053;DHT22;11694;-36.632;-64.318;2022-12-18T07:05:11;19.10;1.00
23053;DHT22;11694;-36.632;-64.318;2022-12-18T07:07:38;19.00;1.00
23053;DHT22;11694;-36.632;-64.318;2022-12-18T07:10:06;19.00;1.00
23053;DHT22;11694;-36.632;-64.318;2022-12-18T07:12:33;18.90;1.00
23053;DHT22;11694;-36.632;-64.318;2022-12-18T07:15:00;18.90;1.00
23053;DHT22;11694;-36.632;-64.318;2022-12-18T07:17:27;18.90;1.00
23053;DHT22;11694;-36.632;-64.318;2022-12-18T07:19:55;18.90;1.00
23053;DHT22;11694;-36.632;-64.318;2022-12-18T07:22:24;18.80;1.00
23053;DHT22;11694;-36.632;-64.318;2022-12-18T07:24:51;18.80;1.00
23053;DHT22;11694;-36.632;-64.318;2022-12-18T07:27:18;18.70;1.00
23053;DHT22;11694;-36.632;-64.318;2022-12-18T07:29:45;18.70;1.00
23053;DHT22;11694;-36.632;-64.318;2022-12-18T07:32:12;18.70;1.00
23053;DHT22;11694;-36.632;-64.318;2022-12-18T07:34:39;18.60;1.00
23053;DHT22;11694;-36.632;-64.318;2022-12-18T07:37:07;18.60;1.00
23053;DHT22;11694;-36.632;-64.318;2022-12-18T07:39:34;18.50;1.00
23053;DHT22;11694;-36.632;-64.318;2022-12-18T07:42:01;18.50;1.00
23053;DHT22;11694;-36.632;-64.318;2022-12-18T07:44:46;18.50;1.00
23053;DHT22;11694;-36.632;-64.318;2022-12-18T07:47:13;18.40;1.00
23053;DHT22;11694;-36.632;-64.318;2022-12-18T07:49:40;18.40;1.00
23053;DHT22;11694;-36.632;-64.318;2022-12-18T07:52:07;18.30;1.00
23053;DHT22;11694;-36.632;-64.318;2022-12-18T07:54:35;18.30;1.00
23053;DHT22;11694;-36.632;-64.318;2022-12-18T07:57:02;18.30;1.00
23053;DHT22;11694;-36.632;-64.318;2022-12-18T07:59:29;18.30;1.00
23053;DHT22;11694;-36.632;-64.318;2022-12-18T08:01:57;18.30;1.00
23053;DHT22;11694;-36.632;-64.318;2022-12-18T08:04:25;18.30;1.00
23053;DHT22;11694;-36.632;-64.318;2022-12-18T08:06:53;18.30;1.00
23053;DHT22;11694;-36.632;-64.318;2022-12-18T08:09:20;18.30;1.00
23053;DHT22;11694;-36.632;-64.318;2022-12-18T08:11:47;18.30;1.00
23053;DHT22;11694;-36.632;-64.318;2022-12-18T08:14:14;18.20;1.00
23053;DHT22;11694;-36.632;-64.318;2022-12-18T08:16:41;18.20;1.00
23053;DHT22;11694;-36.632;-64.318;2022-12-18T08:19:08;18.20;3.70
23053;DHT22;11694;-36.632;-64.318;2022-12-18T08:21:36;18.20;1.00
23053;DHT22;11694;-36.632;-64.318;2022-12-18T08:24:04;18.10;5.80
23053;DHT22;11694;-36.632;-64.318;2022-12-18T08:26:31;18.10;7.90
23053;DHT22;11694;-36.632;-64.318;2022-12-18T08:28:59;18.00;13.10
23053;DHT22;11694;-36.632;-64.318;2022-12-18T08:31:28;18.00;10.70
23053;DHT22;11694;-36.632;-64.318;2022-12-18T08:33:56;18.00;9.80
23053;DHT22;11694;-36.632;-64.318;2022-12-18T08:36:24;18.00;13.10
23053;DHT22;11694;-36.632;-64.318;2022-12-18T08:38:51;18.00;12.60
23053;DHT22;11694;-36.632;-64.318;2022-12-18T08:41:19;17.90;9.10
23053;DHT22;11694;-36.632;-64.318;2022-12-18T08:43:46;17.90;10.10
23053;DHT22;11694;-36.632;-64.318;2022-12-18T08:46:35;17.90;12.80
23053;DHT22;11694;-36.632;-64.318;2022-12-18T08:49:03;17.90;20.70
23053;DHT22;11694;-36.632;-64.318;2022-12-18T08:51:31;17.90;23.90
23053;DHT22;11694;-36.632;-64.318;2022-12-18T08:53:58;17.90;16.00
23053;DHT22;11694;-36.632;-64.318;2022-12-18T08:56:25;17.90;20.40
23053;DHT22;11694;-36.632;-64.318;2022-12-18T08:58:54;17.90;23.10
23053;DHT22;11694;-36.632;-64.318;2022-12-18T09:01:21;17.90;22.10
23053;DHT22;11694;-36.632;-64.318;2022-12-18T09:03:50;17.90;24.50
23053;DHT22;11694;-36.632;-64.318;2022-12-18T09:06:20;17.90;28.80
23053;DHT22;11694;-36.632;-64.318;2022-12-18T09:08:47;17.80;26.30
23053;DHT22;11694;-36.632;-64.318;2022-12-18T09:11:20;17.80;25.80
23053;DHT22;11694;-36.632;-64.318;2022-12-18T09:13:47;17.80;31.80
23053;DHT22;11694;-36.632;-64.318;2022-12-18T09:16:15;17.80;27.30
23053;DHT22;11694;-36.632;-64.318;2022-12-18T09:18:42;17.80;27.70
23053;DHT22;11694;-36.632;-64.318;2022-12-18T09:21:20;17.80;23.70
23053;DHT22;11694;-36.632;-64.318;2022-12-18T09:23:55;17.80;33.20
23053;DHT22;11694;-36.632;-64.318;2022-12-18T09:26:23;17.90;30.80
23053;DHT22;11694;-36.632;-64.318;2022-12-18T09:28:51;17.90;28.00
23053;DHT22;11694;-36.632;-64.318;2022-12-18T09:31:21;17.90;26.80
23053;DHT22;11694;-36.632;-64.318;2022-12-18T09:33:48;17.90;17.40
23053;DHT22;11694;-36.632;-64.318;2022-12-18T09:36:17;17.90;14.80
23053;DHT22;11694;-36.632;-64.318;2022-12-18T09:38:45;17.90;18.70
23053;DHT22;11694;-36.632;-64.318;2022-12-18T09:41:30;17.90;12.10
23053;DHT22;11694;-36.632;-64.318;2022-12-18T09:44:29;17.90;19.80
23053;DHT22;11694;-36.632;-64.318;2022-12-18T09:47:05;18.00;26.90
23053;DHT22;11694;-36.632;-64.318;2022-12-18T09:49:44;18.10;25.30
23053;DHT22;11694;-36.632;-64.318;2022-12-18T09:52:25;18.10;22.70
23053;DHT22;11694;-36.632;-64.318;2022-12-18T09:55:11;18.20;18.60
23053;DHT22;11694;-36.632;-64.318;2022-12-18T09:57:47;18.20;16.60
23053;DHT22;11694;-36.632;-64.318;2022-12-18T10:00:22;18.30;17.30
23053;DHT22;11694;-36.632;-64.318;2022-12-18T10:02:59;18.30;14.50
23053;DHT22;11694;-36.632;-64.318;2022-12-18T10:11:01;18.50;7.90
23053;DHT22;11694;-36.632;-64.318;2022-12-18T10:13:51;18.50;12.30
23053;DHT22;11694;-36.632;-64.318;2022-12-18T10:16:53;18.50;13.70
23053;DHT22;11694;-36.632;-64.318;2022-12-18T10:22:04;18.60;6.10
23053;DHT22;11694;-36.632;-64.318;2022-12-18T10:27:20;18.70;11.60
23053;DHT22;11694;-36.632;-64.318;2022-12-18T10:29:48;18.70;6.10
23053;DHT22;11694;-36.632;-64.318;2022-12-18T10:32:21;18.70;3.40
23053;DHT22;11694;-36.632;-64.318;2022-12-18T10:34:49;18.80;4.70
23053;DHT22;11694;-36.632;-64.318;2022-12-18T10:37:19;18.90;1.00
23053;DHT22;11694;-36.632;-64.318;2022-12-18T10:40:15;19.00;1.00
23053;DHT22;11694;-36.632;-64.318;2022-12-18T10:42:42;19.10;1.00
23053;DHT22;11694;-36.632;-64.318;2022-12-18T10:45:17;19.10;1.00
23053;DHT22;11694;-36.632;-64.318;2022-12-18T10:47:48;19.30;1.00
23053;DHT22;11694;-36.632;-64.318;2022-12-18T10:50:35;19.40;1.00
23053;DHT22;11694;-36.632;-64.318;2022-12-18T10:53:04;19.40;1.00
23053;DHT22;11694;-36.632;-64.318;2022-12-18T10:55:35;19.50;1.00
23053;DHT22;11694;-36.632;-64.318;2022-12-18T10:58:34;19.60;1.00
23053;DHT22;11694;-36.632;-64.318;2022-12-18T11:01:17;19.70;1.00
23053;DHT22;11694;-36.632;-64.318;2022-12-18T11:06:19;19.90;1.00
23053;DHT22;11694;-36.632;-64.318;2022-12-18T11:09:04;20.00;1.00
23053;DHT22;11694;-36.632;-64.318;2022-12-18T11:11:32;20.30;1.00
23053;DHT22;11694;-36.632;-64.318;2022-12-18T11:14:03;20.40;1.00
23053;DHT22;11694;-36.632;-64.318;2022-12-18T11:16:34;20.50;1.00
23053;DHT22;11694;-36.632;-64.318;2022-12-18T11:19:37;20.70;1.00
23053;DHT22;11694;-36.632;-64.318;2022-12-18T11:22:27;20.90;1.00
23053;DHT22;11694;-36.632;-64.318;2022-12-18T11:25:18;21.00;1.00
23053;DHT22;11694;-36.632;-64.318;2022-12-18T11:27:55;21.30;1.00
23053;DHT22;11694;-36.632;-64.318;2022-12-18T11:30:28;21.50;1.00
23053;DHT22;11694;-36.632;-64.318;2022-12-18T11:33:05;21.80;99.90
23053;DHT22;11694;-36.632;-64.318;2022-12-18T11:35:57;21.80;99.90
23053;DHT22;11694;-36.632;-64.318;2022-12-18T11:38:39;21.70;99.90
23053;DHT22;11694;-36.632;-64.318;2022-12-18T11:41:13;21.70;1.00
23053;DHT22;11694;-36.632;-64.318;2022-12-18T11:44:01;21.60;99.90
23053;DHT22;11694;-36.632;-64.318;2022-12-18T11:46:32;21.70;1.00
23053;DHT22;11694;-36.632;-64.318;2022-12-18T11:54:19;22.70;99.90
23053;DHT22;11694;-36.632;-64.318;2022-12-18T12:08:07;23.50;99.90
23053;DHT22;11694;-36.632;-64.318;2022-12-18T12:10:42;23.30;99.90
23053;DHT22;11694;-36.632;-64.318;2022-12-18T12:13:30;23.90;99.90
23053;DHT22;11694;-36.632;-64.318;2022-12-18T12:16:17;24.80;99.90
23053;DHT22;11694;-36.632;-64.318;2022-12-18T12:19:11;26.30;99.90
23053;DHT22;11694;-36.632;-64.318;2022-12-18T12:21:53;27.40;99.90
23053;DHT22;11694;-36.632;-64.318;2022-12-18T12:38:34;28.90;99.90
23053;DHT22;11694;-36.632;-64.318;2022-12-18T12:41:05;28.90;99.90
23053;DHT22;11694;-36.632;-64.318;2022-12-18T12:43:55;28.90;99.90
23053;DHT22;11694;-36.632;-64.318;2022-12-18T12:46:24;29.10;99.90
23053;DHT22;11694;-36.632;-64.318;2022-12-18T12:49:09;29.30;99.90
23053;DHT22;11694;-36.632;-64.318;2022-12-18T12:51:44;29.40;99.90
23053;DHT22;11694;-36.632;-64.318;2022-12-18T12:54:19;29.40;99.90
23053;DHT22;11694;-36.632;-64.318;2022-12-18T13:02:43;29.90;99.90
23053;DHT22;11694;-36.632;-64.318;2022-12-18T13:08:26;30.20;95.70
23053;DHT22;11694;-36.632;-64.318;2022-12-18T13:10:54;30.40;99.10
23053;DHT22;11694;-36.632;-64.318;2022-12-18T13:13:50;30.60;99.90
23053;DHT22;11694;-36.632;-64.318;2022-12-18T13:16:22;30.90;99.10
23053;DHT22;11694;-36.632;-64.318;2022-12-18T13:18:54;31.60;81.30
23053;DHT22;11694;-36.632;-64.318;2022-12-18T13:21:32;31.80;57.70
23053;DHT22;11694;-36.632;-64.318;2022-12-18T13:24:23;31.90;60.40
23053;DHT22;11694;-36.632;-64.318;2022-12-18T13:26:51;32.00;51.80
23053;DHT22;11694;-36.632;-64.318;2022-12-18T13:29:45;32.20;65.70
23053;DHT22;11694;-36.632;-64.318;2022-12-18T13:32:23;32.30;55.40
23053;DHT22;11694;-36.632;-64.318;2022-12-18T13:37:55;33.10;39.00
23053;DHT22;11694;-36.632;-64.318;2022-12-18T13:40:53;33.30;38.30
23053;DHT22;11694;-36.632;-64.318;2022-12-18T13:46:00;33.00;11.20
23053;DHT22;11694;-36.632;-64.318;2022-12-18T13:48:33;33.30;34.50
23053;DHT22;11694;-36.632;-64.318;2022-12-18T13:51:07;33.70;26.60
23053;DHT22;11694;-36.632;-64.318;2022-12-18T13:56:16;33.70;29.50
23053;DHT22;11694;-36.632;-64.318;2022-12-18T13:58:44;34.20;22.40
23053;DHT22;11694;-36.632;-64.318;2022-12-18T14:01:22;34.20;2.20
23053;DHT22;11694;-36.632;-64.318;2022-12-18T14:03:49;34.30;18.90
23053;DHT22;11694;-36.632;-64.318;2022-12-18T14:06:17;34.30;1.00
23053;DHT22;11694;-36.632;-64.318;2022-12-18T14:08:44;34.20;1.00
23053;DHT22;11694;-36.632;-64.318;2022-12-18T14:11:23;34.40;21.90
23053;DHT22;11694;-36.632;-64.318;2022-12-18T14:13:50;34.30;1.00
23053;DHT22;11694;-36.632;-64.318;2022-12-18T14:16:17;34.20;24.80
23053;DHT22;11694;-36.632;-64.318;2022-12-18T14:18:57;34.60;7.80
23053;DHT22;11694;-36.632;-64.318;2022-12-18T14:21:30;34.70;25.80
23053;DHT22;11694;-36.632;-64.318;2022-12-18T14:24:19;35.00;1.00
23053;DHT22;11694;-36.632;-64.318;2022-12-18T14:26:48;35.00;1.00
23053;DHT22;11694;-36.632;-64.318;2022-12-18T14:29:28;35.00;1.00
23053;DHT22;11694;-36.632;-64.318;2022-12-18T14:34:40;35.10;1.00
23053;DHT22;11694;-36.632;-64.318;2022-12-18T14:37:11;34.90;1.00
23053;DHT22;11694;-36.632;-64.318;2022-12-18T14:39:38;34.70;1.00
23053;DHT22;11694;-36.632;-64.318;2022-12-18T14:42:09;34.90;7.10
23053;DHT22;11694;-36.632;-64.318;2022-12-18T14:44:36;35.20;2.70
23053;DHT22;11694;-36.632;-64.318;2022-12-18T14:47:04;35.00;1.00
23053;DHT22;11694;-36.632;-64.318;2022-12-18T14:49:33;34.70;10.30
23053;DHT22;11694;-36.632;-64.318;2022-12-18T14:52:27;34.70;9.60
23053;DHT22;11694;-36.632;-64.318;2022-12-18T14:54:56;35.20;4.00
23053;DHT22;11694;-36.632;-64.318;2022-12-18T14:57:25;35.00;5.30
23053;DHT22;11694;-36.632;-64.318;2022-12-18T15:00:05;35.10;5.70
23053;DHT22;11694;-36.632;-64.318;2022-12-18T15:02:36;35.20;1.00
23053;DHT22;11694;-36.632;-64.318;2022-12-18T15:05:18;35.30;14.70
23053;DHT22;11694;-36.632;-64.318;2022-12-18T15:07:50;35.50;12.40
23053;DHT22;11694;-36.632;-64.318;2022-12-18T15:10:24;35.30;14.50
23053;DHT22;11694;-36.632;-64.318;2022-12-18T15:20:44;35.60;1.80
23053;DHT22;11694;-36.632;-64.318;2022-12-18T15:23:24;35.60;13.80
23053;DHT22;11694;-36.632;-64.318;2022-12-18T15:26:02;35.50;1.00
23053;DHT22;11694;-36.632;-64.318;2022-12-18T15:28:46;35.30;1.00
23053;DHT22;11694;-36.632;-64.318;2022-12-18T15:33:44;35.10;9.90
23053;DHT22;11694;-36.632;-64.318;2022-12-18T15:36:14;35.30;8.00
23053;DHT22;11694;-36.632;-64.318;2022-12-18T15:38:51;35.40;16.00
23053;DHT22;11694;-36.632;-64.318;2022-12-18T15:41:20;35.50;43.80
23053;DHT22;11694;-36.632;-64.318;2022-12-18T15:43:52;35.50;6.80
23053;DHT22;11694;-36.632;-64.318;2022-12-18T15:46:22;35.70;19.80
23053;DHT22;11694;-36.632;-64.318;2022-12-18T15:48:55;35.70;5.60
23053;DHT22;11694;-36.632;-64.318;2022-12-18T15:51:29;35.70;10.60
23053;DHT22;11694;-36.632;-64.318;2022-12-18T15:54:03;35.40;1.00
23053;DHT22;11694;-36.632;-64.318;2022-12-18T15:56:33;35.30;2.00
23053;DHT22;11694;-36.632;-64.318;2022-12-18T15:59:20;35.50;1.00
23053;DHT22;11694;-36.632;-64.318;2022-12-18T16:01:49;35.50;14.10
23053;DHT22;11694;-36.632;-64.318;2022-12-18T16:04:19;35.40;1.00
23053;DHT22;11694;-36.632;-64.318;2022-12-18T16:06:50;35.40;1.00
23053;DHT22;11694;-36.632;-64.318;2022-12-18T16:09:18;35.40;1.00
23053;DHT22;11694;-36.632;-64.318;2022-12-18T16:11:45;35.40;9.50
23053;DHT22;11694;-36.632;-64.318;2022-12-18T16:16:47;35.30;1.00
23053;DHT22;11694;-36.632;-64.318;2022-12-18T16:19:14;35.30;1.00
23053;DHT22;11694;-36.632;-64.318;2022-12-18T16:21:42;35.40;1.00
23053;DHT22;11694;-36.632;-64.318;2022-12-18T16:24:18;35.40;1.00
23053;DHT22;11694;-36.632;-64.318;2022-12-18T16:26:49;35.30;1.00
23053;DHT22;11694;-36.632;-64.318;2022-12-18T16:29:19;35.10;1.00
23053;DHT22;11694;-36.632;-64.318;2022-12-18T16:31:51;35.10;3.10
23053;DHT22;11694;-36.632;-64.318;2022-12-18T16:34:23;35.20;1.00
23053;DHT22;11694;-36.632;-64.318;2022-12-18T16:36:57;35.50;5.70
23053;DHT22;11694;-36.632;-64.318;2022-12-18T16:39:25;35.90;6.60
23053;DHT22;11694;-36.632;-64.318;2022-12-18T16:41:53;36.00;1.00
23053;DHT22;11694;-36.632;-64.318;2022-12-18T16:44:21;35.80;1.00
23053;DHT22;11694;-36.632;-64.318;2022-12-18T16:46:48;35.70;1.00
23053;DHT22;11694;-36.632;-64.318;2022-12-18T16:49:16;35.80;1.00
23053;DHT22;11694;-36.632;-64.318;2022-12-18T16:51:47;36.00;1.00
23053;DHT22;11694;-36.632;-64.318;2022-12-18T16:54:14;35.90;1.00
23053;DHT22;11694;-36.632;-64.318;2022-12-18T16:56:41;36.10;1.00
23053;DHT22;11694;-36.632;-64.318;2022-12-18T16:59:11;36.20;1.00
23053;DHT22;11694;-36.632;-64.318;2022-12-18T17:01:38;36.30;1.00
23053;DHT22;11694;-36.632;-64.318;2022-12-18T17:04:09;36.40;1.00
23053;DHT22;11694;-36.632;-64.318;2022-12-18T17:06:40;36.50;1.00
23053;DHT22;11694;-36.632;-64.318;2022-12-18T17:09:11;36.40;1.00